createdAt,value
2018-04-25T00:00:59.059Z,0.00
2018-04-25T00:01:59.494Z,0.00
2018-04-25T00:02:59.921Z,0.00
2018-04-25T00:04:00.352Z,0.00
2018-04-25T00:05:00.784Z,0.00
2018-04-25T00:06:01.232Z,0.00
2018-04-25T00:07:01.662Z,0.00
2018-04-25T00:08:02.078Z,0.00
2018-04-25T00:09:02.509Z,0.00
2018-04-25T00:10:02.953Z,0.00
2018-04-25T00:11:03.377Z,0.00
2018-04-25T00:12:03.803Z,0.00
2018-04-25T00:13:04.236Z,0.00
2018-04-25T00:14:04.669Z,0.00
2018-04-25T00:15:05.099Z,0.00
2018-04-25T00:16:05.615Z,0.00
2018-04-25T00:17:05.967Z,0.00
2018-04-25T00:18:06.392Z,0.00
2018-04-25T00:19:06.829Z,0.00
2018-04-25T00:20:07.259Z,0.00
2018-04-25T00:21:07.685Z,0.00
2018-04-25T00:22:08.121Z,0.00
2018-04-25T00:23:08.548Z,0.00
2018-04-25T00:24:08.985Z,0.00
2018-04-25T00:25:09.409Z,0.00
2018-04-25T00:26:09.844Z,0.00
2018-04-25T00:27:10.277Z,0.00
2018-04-25T00:28:10.707Z,0.00
2018-04-25T00:29:11.139Z,0.00
2018-04-25T00:30:11.587Z,0.00
2018-04-25T00:31:12.007Z,0.00
2018-04-25T00:32:12.431Z,0.00
2018-04-25T00:33:12.861Z,0.00
2018-04-25T00:34:13.299Z,0.00
2018-04-25T00:35:13.725Z,0.00
2018-04-25T00:36:14.158Z,0.00
2018-04-25T00:37:14.591Z,0.00
2018-04-25T00:38:15.016Z,0.00
2018-04-25T00:39:15.447Z,0.00
2018-04-25T00:40:15.878Z,0.00
2018-04-25T00:41:16.384Z,0.00
2018-04-25T00:42:16.743Z,0.00
2018-04-25T00:43:17.175Z,0.00
2018-04-25T00:44:17.602Z,0.00
2018-04-25T00:45:18.047Z,0.00
2018-04-25T00:46:18.465Z,0.00
2018-04-25T00:47:18.896Z,0.00
2018-04-25T00:48:19.331Z,0.00
2018-04-25T00:49:19.759Z,0.00
2018-04-25T00:50:20.191Z,0.00
2018-04-25T00:51:20.620Z,0.00
2018-04-25T00:52:21.058Z,0.00
2018-04-25T00:53:21.489Z,0.00
2018-04-25T00:54:21.915Z,0.00
2018-04-25T00:55:22.345Z,0.00
2018-04-25T00:56:22.785Z,0.00
2018-04-25T00:57:23.209Z,0.00
2018-04-25T00:58:23.639Z,0.00
2018-04-25T00:59:24.069Z,0.00
2018-04-25T01:00:24.503Z,0.00
2018-04-25T01:01:24.940Z,0.00
2018-04-25T01:02:25.369Z,0.00
2018-04-25T01:03:25.796Z,0.00
2018-04-25T01:04:26.228Z,0.00
2018-04-25T01:05:26.657Z,0.00
2018-04-25T01:06:27.118Z,0.00
2018-04-25T01:07:27.523Z,0.00
2018-04-25T01:08:27.955Z,0.00
2018-04-25T01:09:28.403Z,0.00
2018-04-25T01:10:28.822Z,0.00
2018-04-25T01:11:29.272Z,0.00
2018-04-25T01:12:29.677Z,0.00
2018-04-25T01:13:30.108Z,0.00
2018-04-25T01:14:30.538Z,0.00
2018-04-25T01:15:30.974Z,0.00
2018-04-25T01:16:31.409Z,0.00
2018-04-25T01:17:31.832Z,0.00
2018-04-25T01:18:32.267Z,0.00
2018-04-25T01:19:32.707Z,0.00
2018-04-25T01:20:33.127Z,0.00
2018-04-25T01:21:33.559Z,0.00
2018-04-25T01:22:33.986Z,0.00
2018-04-25T01:23:34.421Z,0.00
2018-04-25T01:24:34.848Z,0.00
2018-04-25T01:25:35.289Z,0.00
2018-04-25T01:26:35.717Z,0.00
2018-04-25T01:27:36.141Z,0.00
2018-04-25T01:28:36.570Z,0.00
2018-04-25T01:29:37.012Z,0.00
2018-04-25T01:30:37.438Z,0.00
2018-04-25T01:31:37.869Z,0.00
2018-04-25T01:32:38.308Z,0.00
2018-04-25T01:33:38.730Z,0.00
2018-04-25T01:34:39.161Z,0.00
2018-04-25T01:35:39.590Z,0.00
2018-04-25T01:36:40.089Z,0.00
2018-04-25T01:37:40.461Z,0.00
2018-04-25T01:38:40.885Z,0.00
2018-04-25T01:39:41.314Z,0.00
2018-04-25T01:40:41.749Z,0.00
2018-04-25T01:41:42.176Z,0.00
2018-04-25T01:42:42.610Z,0.00
2018-04-25T01:43:43.039Z,0.00
2018-04-25T01:44:43.467Z,0.00
2018-04-25T01:45:43.905Z,0.00
2018-04-25T01:46:44.329Z,0.00
2018-04-25T01:47:44.773Z,0.00
2018-04-25T01:48:45.193Z,0.00
2018-04-25T01:49:45.627Z,0.00
2018-04-25T01:50:46.058Z,0.00
2018-04-25T01:51:46.513Z,0.00
2018-04-25T01:52:46.918Z,0.00
2018-04-25T01:53:47.350Z,0.00
2018-04-25T01:54:47.786Z,0.00
2018-04-25T01:55:48.210Z,0.00
2018-04-25T01:56:48.640Z,0.00
2018-04-25T01:57:49.071Z,0.00
2018-04-25T01:58:49.501Z,0.00
2018-04-25T01:59:49.930Z,0.00
2018-04-25T02:00:50.366Z,0.00
2018-04-25T02:01:50.797Z,0.00
2018-04-25T02:02:51.226Z,0.00
2018-04-25T02:03:51.656Z,0.00
2018-04-25T02:04:52.086Z,0.00
2018-04-25T02:05:52.522Z,0.00
2018-04-25T02:06:52.947Z,0.00
2018-04-25T02:07:53.380Z,0.00
2018-04-25T02:08:53.810Z,0.00
2018-04-25T02:09:54.244Z,0.00
2018-04-25T02:10:54.670Z,0.00
2018-04-25T02:11:55.102Z,0.00
2018-04-25T02:12:55.534Z,0.00
2018-04-25T02:13:55.962Z,0.00
2018-04-25T02:14:56.395Z,0.00
2018-04-25T02:15:56.824Z,0.00
2018-04-25T02:16:57.256Z,0.00
2018-04-25T02:17:57.686Z,0.00
2018-04-25T02:18:58.182Z,0.00
2018-04-25T02:19:58.550Z,0.00
2018-04-25T02:20:58.982Z,0.00
2018-04-25T02:21:59.414Z,0.00
2018-04-25T02:22:59.841Z,0.00
2018-04-25T02:24:00.274Z,0.00
2018-04-25T02:25:00.700Z,0.00
2018-04-25T02:26:01.131Z,0.00
2018-04-25T02:27:01.577Z,0.00
2018-04-25T02:28:01.999Z,0.00
2018-04-25T02:29:02.439Z,0.00
2018-04-25T02:30:02.858Z,0.00
2018-04-25T02:31:03.292Z,0.00
2018-04-25T02:32:03.720Z,0.00
2018-04-25T02:33:04.153Z,0.00
2018-04-25T02:34:04.584Z,0.00
2018-04-25T02:35:05.013Z,0.00
2018-04-25T02:36:05.451Z,0.00
2018-04-25T02:37:05.880Z,0.00
2018-04-25T02:38:06.306Z,0.00
2018-04-25T02:39:06.738Z,0.00
2018-04-25T02:40:07.167Z,0.00
2018-04-25T02:41:07.604Z,0.00
2018-04-25T02:42:08.031Z,0.00
2018-04-25T02:43:08.463Z,0.00
2018-04-25T02:44:08.893Z,0.00
2018-04-25T02:45:09.321Z,0.00
2018-04-25T02:46:09.754Z,0.00
2018-04-25T02:47:10.184Z,0.00
2018-04-25T02:48:10.617Z,0.00
2018-04-25T02:49:11.045Z,0.00
2018-04-25T02:50:11.477Z,0.00
2018-04-25T02:51:11.910Z,0.00
2018-04-25T02:52:12.338Z,0.00
2018-04-25T02:53:12.771Z,0.00
2018-04-25T02:54:13.202Z,0.00
2018-04-25T02:55:13.634Z,0.00
2018-04-25T02:56:14.062Z,0.00
2018-04-25T02:57:14.494Z,0.00
2018-04-25T02:58:14.923Z,0.00
2018-04-25T02:59:15.350Z,0.00
2018-04-25T03:00:15.781Z,0.00
2018-04-25T03:01:16.213Z,0.00
2018-04-25T03:02:16.668Z,0.00
2018-04-25T03:03:17.073Z,0.00
2018-04-25T03:04:17.505Z,0.00
2018-04-25T03:05:17.940Z,0.00
2018-04-25T03:06:18.364Z,0.00
2018-04-25T03:07:18.794Z,0.00
2018-04-25T03:08:19.229Z,0.00
2018-04-25T03:09:19.655Z,0.00
2018-04-25T03:10:20.085Z,0.00
2018-04-25T03:11:20.516Z,0.00
2018-04-25T03:12:20.951Z,0.00
2018-04-25T03:13:21.376Z,0.00
2018-04-25T03:14:21.805Z,0.00
2018-04-25T03:15:22.245Z,0.00
2018-04-25T03:16:22.671Z,0.00
2018-04-25T03:17:23.099Z,0.00
2018-04-25T03:18:23.527Z,0.00
2018-04-25T03:19:23.958Z,0.00
2018-04-25T03:20:24.395Z,0.00
2018-04-25T03:21:24.817Z,0.00
2018-04-25T03:22:25.250Z,0.00
2018-04-25T03:23:25.682Z,0.00
2018-04-25T03:24:26.110Z,0.00
2018-04-25T03:25:26.539Z,0.00
2018-04-25T03:26:26.968Z,0.00
2018-04-25T03:27:27.402Z,0.00
2018-04-25T03:28:27.827Z,0.00
2018-04-25T03:29:28.261Z,0.00
2018-04-25T03:30:28.692Z,0.00
2018-04-25T03:31:29.119Z,0.00
2018-04-25T03:32:29.549Z,0.00
2018-04-25T03:33:29.978Z,0.00
2018-04-25T03:34:30.407Z,0.00
2018-04-25T03:35:30.842Z,0.00
2018-04-25T03:36:31.271Z,0.00
2018-04-25T03:37:31.699Z,0.00
2018-04-25T03:38:32.136Z,0.00
2018-04-25T03:39:32.559Z,0.00
2018-04-25T03:40:32.987Z,0.00
2018-04-25T03:41:33.420Z,0.00
2018-04-25T03:42:33.859Z,0.00
2018-04-25T03:43:34.277Z,0.00
2018-04-25T03:44:34.711Z,0.00
2018-04-25T03:45:35.141Z,0.00
2018-04-25T03:46:35.569Z,0.00
2018-04-25T03:47:35.997Z,0.00
2018-04-25T03:48:36.429Z,0.00
2018-04-25T03:49:36.867Z,0.00
2018-04-25T03:50:37.291Z,0.00
2018-04-25T03:51:37.719Z,0.00
2018-04-25T03:52:38.147Z,0.00
2018-04-25T03:53:38.581Z,0.00
2018-04-25T03:54:39.009Z,0.00
2018-04-25T03:55:39.441Z,0.00
2018-04-25T03:56:39.917Z,0.00
2018-04-25T03:57:40.310Z,0.00
2018-04-25T03:58:40.735Z,0.00
2018-04-25T03:59:41.158Z,0.00
2018-04-25T04:00:41.591Z,5.63
2018-04-25T04:01:42.033Z,5.63
2018-04-25T04:02:42.462Z,5.63
2018-04-25T04:03:42.886Z,5.63
2018-04-25T04:04:43.318Z,0.00
2018-04-25T04:05:43.743Z,0.00
2018-04-25T04:06:44.174Z,0.00
2018-04-25T04:07:44.608Z,0.00
2018-04-25T04:08:45.047Z,0.00
2018-04-25T04:09:45.465Z,0.00
2018-04-25T04:10:45.892Z,0.00
2018-04-25T04:11:46.327Z,0.00
2018-04-25T04:12:46.753Z,0.00
2018-04-25T04:13:47.189Z,0.00
2018-04-25T04:14:47.617Z,0.00
2018-04-25T04:15:48.046Z,0.00
2018-04-25T04:16:48.484Z,0.00
2018-04-25T04:17:48.905Z,0.00
2018-04-25T04:18:49.337Z,0.00
2018-04-25T04:19:49.773Z,0.00
2018-04-25T04:20:50.203Z,0.00
2018-04-25T04:21:50.630Z,0.00
2018-04-25T04:22:51.055Z,0.00
2018-04-25T04:23:51.493Z,5.63
2018-04-25T04:24:51.929Z,5.63
2018-04-25T04:25:52.353Z,5.63
2018-04-25T04:26:52.785Z,11.25
2018-04-25T04:27:53.216Z,11.25
2018-04-25T04:28:53.643Z,11.25
2018-04-25T04:29:54.072Z,16.88
2018-04-25T04:30:54.503Z,16.88
2018-04-25T04:31:54.937Z,16.88
2018-04-25T04:32:55.364Z,16.88
2018-04-25T04:33:55.797Z,22.50
2018-04-25T04:34:56.225Z,22.50
2018-04-25T04:35:56.655Z,22.50
2018-04-25T04:36:57.086Z,28.13
2018-04-25T04:37:57.588Z,28.13
2018-04-25T04:38:57.956Z,28.13
2018-04-25T04:39:58.378Z,33.75
2018-04-25T04:40:58.810Z,39.38
2018-04-25T04:41:59.236Z,45.00
2018-04-25T04:42:59.671Z,50.63
2018-04-25T04:44:00.100Z,50.63
2018-04-25T04:45:00.536Z,50.63
2018-04-25T04:46:00.959Z,45.00
2018-04-25T04:47:01.403Z,39.38
2018-04-25T04:48:01.840Z,39.38
2018-04-25T04:49:02.252Z,39.38
2018-04-25T04:50:02.712Z,45.00
2018-04-25T04:51:03.143Z,50.63
2018-04-25T04:52:03.552Z,56.25
2018-04-25T04:53:04.003Z,56.25
2018-04-25T04:54:04.437Z,56.25
2018-04-25T04:55:04.865Z,50.63
2018-04-25T04:56:05.275Z,50.63
2018-04-25T04:57:05.698Z,50.63
2018-04-25T04:58:06.122Z,45.00
2018-04-25T04:59:06.559Z,45.00
2018-04-25T05:00:06.999Z,50.63
2018-04-25T05:01:07.428Z,45.00
2018-04-25T05:02:07.850Z,39.38
2018-04-25T05:03:08.331Z,39.38
2018-04-25T05:04:08.713Z,39.38
2018-04-25T05:05:09.163Z,45.00
2018-04-25T05:06:09.575Z,50.63
2018-04-25T05:07:10.002Z,50.63
2018-04-25T05:08:10.444Z,50.63
2018-04-25T05:09:10.867Z,56.25
2018-04-25T05:10:11.306Z,56.25
2018-04-25T05:11:11.725Z,56.25
2018-04-25T05:12:12.187Z,61.88
2018-04-25T05:13:12.685Z,73.13
2018-04-25T05:14:13.012Z,78.75
2018-04-25T05:15:13.455Z,78.75
2018-04-25T05:16:13.902Z,90.00
2018-04-25T05:17:14.346Z,101.25
2018-04-25T05:18:14.745Z,101.25
2018-04-25T05:19:15.174Z,90.00
2018-04-25T05:20:15.634Z,84.38
2018-04-25T05:21:16.035Z,90.00
2018-04-25T05:22:16.466Z,90.00
2018-04-25T05:23:16.895Z,90.00
2018-04-25T05:24:17.339Z,84.38
2018-04-25T05:25:17.769Z,84.38
2018-04-25T05:26:18.193Z,84.38
2018-04-25T05:27:18.627Z,90.00
2018-04-25T05:28:19.055Z,90.00
2018-04-25T05:29:19.499Z,95.63
2018-04-25T05:30:19.925Z,95.63
2018-04-25T05:31:20.388Z,95.63
2018-04-25T05:32:20.779Z,90.00
2018-04-25T05:33:21.210Z,78.75
2018-04-25T05:34:21.660Z,90.00
2018-04-25T05:35:22.074Z,90.00
2018-04-25T05:36:22.505Z,84.38
2018-04-25T05:37:22.949Z,73.13
2018-04-25T05:38:23.377Z,73.13
2018-04-25T05:39:23.801Z,95.63
2018-04-25T05:40:24.248Z,106.88
2018-04-25T05:41:24.705Z,84.38
2018-04-25T05:42:25.147Z,67.50
2018-04-25T05:43:25.532Z,56.25
2018-04-25T05:44:25.965Z,56.25
2018-04-25T05:45:26.415Z,56.25
2018-04-25T05:46:26.816Z,67.50
2018-04-25T05:47:27.263Z,78.75
2018-04-25T05:48:27.688Z,84.38
2018-04-25T05:49:28.131Z,84.38
2018-04-25T05:50:28.542Z,73.13
2018-04-25T05:51:28.980Z,61.88
2018-04-25T05:52:29.407Z,61.88
2018-04-25T05:53:29.836Z,73.13
2018-04-25T05:54:30.281Z,101.25
2018-04-25T05:55:30.708Z,135.00
2018-04-25T05:56:31.134Z,140.63
2018-04-25T05:57:31.587Z,123.75
2018-04-25T05:58:31.993Z,112.50
2018-04-25T05:59:32.423Z,112.50
2018-04-25T06:00:32.865Z,112.50
2018-04-25T06:01:33.295Z,101.25
2018-04-25T06:02:33.720Z,106.88
2018-04-25T06:03:34.193Z,112.50
2018-04-25T06:04:34.601Z,106.88
2018-04-25T06:05:35.031Z,95.63
2018-04-25T06:06:35.454Z,90.00
2018-04-25T06:07:35.878Z,78.75
2018-04-25T06:08:36.313Z,78.75
2018-04-25T06:09:36.729Z,73.13
2018-04-25T06:10:37.189Z,73.13
2018-04-25T06:11:37.594Z,78.75
2018-04-25T06:12:38.113Z,90.00
2018-04-25T06:13:38.466Z,106.88
2018-04-25T06:14:38.886Z,112.50
2018-04-25T06:15:39.319Z,106.88
2018-04-25T06:16:39.754Z,118.13
2018-04-25T06:17:40.183Z,106.88
2018-04-25T06:18:40.623Z,106.88
2018-04-25T06:19:41.063Z,106.88
2018-04-25T06:20:41.502Z,106.88
2018-04-25T06:21:41.919Z,95.63
2018-04-25T06:22:42.343Z,90.00
2018-04-25T06:23:42.773Z,78.75
2018-04-25T06:24:43.199Z,73.13
2018-04-25T06:25:43.623Z,67.50
2018-04-25T06:26:44.064Z,67.50
2018-04-25T06:27:44.505Z,67.50
2018-04-25T06:28:44.926Z,67.50
2018-04-25T06:29:45.350Z,67.50
2018-04-25T06:30:45.791Z,67.50
2018-04-25T06:31:46.242Z,67.50
2018-04-25T06:32:46.658Z,67.50
2018-04-25T06:33:47.080Z,67.50
2018-04-25T06:34:47.572Z,61.88
2018-04-25T06:35:47.943Z,56.25
2018-04-25T06:36:48.376Z,50.63
2018-04-25T06:37:48.804Z,56.25
2018-04-25T06:38:49.233Z,67.50
2018-04-25T06:39:49.670Z,67.50
2018-04-25T06:40:50.100Z,67.50
2018-04-25T06:41:50.531Z,67.50
2018-04-25T06:42:50.967Z,67.50
2018-04-25T06:43:51.391Z,67.50
2018-04-25T06:44:51.903Z,73.13
2018-04-25T06:45:52.253Z,84.38
2018-04-25T06:46:52.684Z,90.00
2018-04-25T06:47:53.117Z,101.25
2018-04-25T06:48:53.547Z,118.13
2018-04-25T06:49:53.980Z,129.38
2018-04-25T06:50:54.414Z,123.75
2018-04-25T06:51:54.840Z,101.25
2018-04-25T06:52:55.273Z,101.25
2018-04-25T06:53:55.705Z,112.50
2018-04-25T06:54:56.142Z,106.88
2018-04-25T06:55:56.567Z,90.00
2018-04-25T06:56:57.005Z,73.13
2018-04-25T06:57:57.452Z,78.75
2018-04-25T06:58:57.868Z,73.13
2018-04-25T06:59:58.291Z,67.50
2018-04-25T07:00:58.726Z,50.63
2018-04-25T07:01:59.160Z,45.00
2018-04-25T07:02:59.591Z,56.25
2018-04-25T07:04:00.027Z,78.75
2018-04-25T07:05:00.454Z,84.38
2018-04-25T07:06:00.893Z,73.13
2018-04-25T07:07:01.323Z,61.88
2018-04-25T07:08:01.840Z,73.13
2018-04-25T07:09:02.182Z,84.38
2018-04-25T07:10:02.617Z,84.38
2018-04-25T07:11:03.049Z,84.38
2018-04-25T07:12:03.478Z,95.63
2018-04-25T07:13:03.918Z,112.50
2018-04-25T07:14:04.428Z,151.88
2018-04-25T07:15:04.772Z,163.13
2018-04-25T07:16:05.226Z,157.50
2018-04-25T07:17:05.643Z,129.38
2018-04-25T07:18:06.073Z,106.88
2018-04-25T07:19:06.506Z,101.25
2018-04-25T07:20:06.993Z,84.38
2018-04-25T07:21:07.369Z,56.25
2018-04-25T07:22:07.805Z,50.63
2018-04-25T07:23:08.244Z,56.25
2018-04-25T07:24:08.676Z,61.88
2018-04-25T07:25:09.120Z,73.13
2018-04-25T07:26:09.539Z,84.38
2018-04-25T07:27:09.964Z,84.38
2018-04-25T07:28:10.396Z,95.63
2018-04-25T07:29:10.830Z,95.63
2018-04-25T07:30:11.261Z,101.25
2018-04-25T07:31:11.694Z,90.00
2018-04-25T07:32:12.131Z,78.75
2018-04-25T07:33:12.554Z,78.75
2018-04-25T07:34:12.997Z,90.00
2018-04-25T07:35:13.423Z,95.63
2018-04-25T07:36:13.910Z,106.88
2018-04-25T07:37:14.287Z,112.50
2018-04-25T07:38:14.719Z,106.88
2018-04-25T07:39:15.158Z,95.63
2018-04-25T07:40:15.585Z,90.00
2018-04-25T07:41:16.024Z,95.63
2018-04-25T07:42:16.454Z,101.25
2018-04-25T07:43:16.886Z,106.88
2018-04-25T07:44:17.316Z,112.50
2018-04-25T07:45:17.750Z,112.50
2018-04-25T07:46:18.179Z,118.13
2018-04-25T07:47:18.615Z,118.13
2018-04-25T07:48:19.047Z,106.88
2018-04-25T07:49:19.483Z,106.88
2018-04-25T07:50:19.915Z,118.13
2018-04-25T07:51:20.348Z,123.75
2018-04-25T07:52:20.836Z,118.13
2018-04-25T07:53:21.215Z,112.50
2018-04-25T07:54:21.644Z,112.50
2018-04-25T07:55:22.076Z,95.63
2018-04-25T07:56:22.511Z,106.88
2018-04-25T07:57:22.943Z,129.38
2018-04-25T07:58:23.378Z,157.50
2018-04-25T07:59:23.810Z,135.00
2018-04-25T08:00:24.242Z,106.88
2018-04-25T08:01:24.675Z,106.88
2018-04-25T08:02:25.110Z,123.75
2018-04-25T08:03:25.544Z,140.63
2018-04-25T08:04:25.979Z,151.88
2018-04-25T08:05:26.411Z,140.63
2018-04-25T08:06:26.841Z,140.63
2018-04-25T08:07:27.298Z,140.63
2018-04-25T08:08:27.715Z,146.25
2018-04-25T08:09:28.149Z,174.38
2018-04-25T08:10:28.584Z,174.38
2018-04-25T08:11:29.009Z,185.63
2018-04-25T08:12:29.440Z,241.88
2018-04-25T08:13:29.877Z,360.00
2018-04-25T08:14:30.312Z,427.50
2018-04-25T08:15:30.746Z,551.25
2018-04-25T08:16:31.176Z,483.75
2018-04-25T08:17:31.622Z,450.00
2018-04-25T08:18:32.048Z,433.13
2018-04-25T08:19:32.488Z,461.25
2018-04-25T08:20:32.914Z,534.38
2018-04-25T08:21:33.348Z,540.00
2018-04-25T08:22:33.783Z,556.88
2018-04-25T08:23:34.220Z,646.88
2018-04-25T08:24:37.534Z,511.88
2018-04-25T08:25:36.040Z,427.50
2018-04-25T08:26:35.532Z,416.25
2018-04-25T08:27:50.539Z,438.75
2018-04-25T08:28:39.057Z,405.00
2018-04-25T08:29:36.840Z,472.50
2018-04-25T08:30:37.269Z,455.63
2018-04-25T08:31:37.705Z,461.25
2018-04-25T08:32:38.145Z,438.75
2018-04-25T08:33:38.624Z,421.88
2018-04-25T08:35:00.181Z,388.13
2018-04-25T08:35:39.461Z,393.75
2018-04-25T08:36:39.890Z,393.75
2018-04-25T08:37:40.339Z,365.63
2018-04-25T08:38:40.774Z,326.25
2018-04-25T08:39:41.199Z,258.75
2018-04-25T08:40:41.641Z,191.25
2018-04-25T08:41:42.085Z,163.13
2018-04-25T08:42:42.520Z,168.75
2018-04-25T08:43:42.980Z,180.00
2018-04-25T08:44:43.408Z,185.63
2018-04-25T08:45:43.817Z,196.88
2018-04-25T08:46:44.277Z,202.50
2018-04-25T08:47:44.699Z,253.13
2018-04-25T08:48:45.134Z,331.88
2018-04-25T08:49:46.549Z,427.50
2018-04-25T08:50:46.008Z,511.88
2018-04-25T08:51:46.435Z,534.38
2018-04-25T08:52:46.907Z,416.25
2018-04-25T08:53:50.050Z,348.75
2018-04-25T08:54:47.756Z,343.13
2018-04-25T08:55:48.197Z,416.25
2018-04-25T08:56:51.570Z,466.88
2018-04-25T08:57:49.055Z,393.75
2018-04-25T08:58:52.050Z,371.25
2018-04-25T08:59:49.947Z,450.00
2018-04-25T09:00:50.373Z,551.25
2018-04-25T09:01:50.814Z,551.25
2018-04-25T09:02:51.247Z,455.63
2018-04-25T09:03:51.689Z,416.25
2018-04-25T09:04:52.159Z,478.13
2018-04-25T09:05:52.652Z,489.38
2018-04-25T09:06:53.022Z,489.38
2018-04-25T09:07:53.459Z,731.25
2018-04-25T09:08:53.892Z,883.13
2018-04-25T09:09:54.314Z,911.25
2018-04-25T09:10:54.795Z,1125.00
2018-04-25T09:11:55.191Z,883.13
2018-04-25T09:12:55.622Z,697.50
2018-04-25T09:13:56.065Z,697.50
2018-04-25T09:14:56.512Z,826.88
2018-04-25T09:15:56.942Z,1321.88
2018-04-25T09:16:57.387Z,1490.63
2018-04-25T09:17:57.829Z,990.00
2018-04-25T09:18:58.264Z,973.13
2018-04-25T09:19:58.702Z,1620.00
2018-04-25T09:20:59.176Z,1068.75
2018-04-25T09:21:59.582Z,1440.00
2018-04-25T09:23:55.233Z,2795.63
2018-04-25T09:24:55.663Z,1805.63
2018-04-25T09:26:50.263Z,3071.25
2018-04-25T09:27:50.721Z,2964.38
2018-04-25T09:29:45.307Z,1108.13
2018-04-25T09:30:45.741Z,1884.38
2018-04-25T09:32:40.354Z,3273.75
2018-04-25T09:33:40.807Z,2514.38
2018-04-25T09:35:35.408Z,2008.13
2018-04-25T09:36:35.853Z,1001.25
2018-04-25T09:38:30.449Z,1271.25
2018-04-25T09:39:30.902Z,1811.25
2018-04-25T09:41:25.582Z,1743.75
2018-04-25T09:42:25.964Z,3262.50
2018-04-25T09:44:20.572Z,1175.63
2018-04-25T09:45:21.024Z,1091.25
2018-04-25T09:47:15.630Z,905.63
2018-04-25T09:48:16.078Z,523.13
2018-04-25T09:50:10.690Z,478.13
2018-04-25T09:51:11.130Z,495.00
2018-04-25T09:53:06.716Z,613.13
2018-04-25T09:54:07.162Z,596.25
2018-04-25T09:56:01.765Z,838.13
2018-04-25T09:57:02.200Z,1906.88
2018-04-25T09:58:56.802Z,450.00
2018-04-25T09:59:57.252Z,663.75
2018-04-25T10:01:51.858Z,669.38
2018-04-25T10:02:52.285Z,658.13
2018-04-25T10:04:47.885Z,343.13
2018-04-25T10:05:48.314Z,331.88
2018-04-25T10:07:43.895Z,438.75
2018-04-25T10:08:44.329Z,433.13
2018-04-25T10:10:38.933Z,472.50
2018-04-25T10:11:39.364Z,421.88
2018-04-25T10:13:33.960Z,399.38
2018-04-25T10:14:34.411Z,326.25
2018-04-25T10:16:28.993Z,168.75
2018-04-25T10:17:29.424Z,180.00
2018-04-25T10:19:25.014Z,292.50
2018-04-25T10:20:25.437Z,686.25
2018-04-25T10:22:20.045Z,849.38
2018-04-25T10:23:20.487Z,1220.63
2018-04-25T10:25:16.046Z,2075.63
2018-04-25T10:26:16.514Z,1395.00
2018-04-25T10:28:11.090Z,736.88
2018-04-25T10:29:11.535Z,961.88
2018-04-25T10:31:06.120Z,1113.75
2018-04-25T10:32:06.653Z,753.75
2018-04-25T10:34:01.187Z,354.38
2018-04-25T10:35:01.631Z,281.25
2018-04-25T10:36:02.077Z,798.75
2018-04-25T10:37:02.521Z,495.00
2018-04-25T10:38:02.970Z,371.25
2018-04-25T10:39:03.415Z,264.38
2018-04-25T10:40:03.863Z,258.75
2018-04-25T10:41:04.307Z,292.50
2018-04-25T10:42:04.754Z,258.75
2018-04-25T10:43:05.201Z,258.75
2018-04-25T10:44:05.651Z,253.13
2018-04-25T10:45:06.090Z,270.00
2018-04-25T10:46:06.528Z,275.63
2018-04-25T10:47:06.978Z,264.38
2018-04-25T10:48:07.419Z,264.38
2018-04-25T10:49:07.858Z,264.38
2018-04-25T10:50:08.304Z,258.75
2018-04-25T10:51:08.745Z,253.13
2018-04-25T10:52:09.188Z,275.63
2018-04-25T10:53:09.632Z,281.25
2018-04-25T10:54:10.070Z,303.75
2018-04-25T10:55:10.512Z,371.25
2018-04-25T10:56:10.948Z,348.75
2018-04-25T10:57:11.398Z,298.13
2018-04-25T10:58:11.834Z,219.38
2018-04-25T10:59:12.278Z,185.63
2018-04-25T11:00:12.713Z,163.13
2018-04-25T11:01:13.158Z,129.38
2018-04-25T11:02:13.594Z,112.50
2018-04-25T11:03:14.033Z,135.00
2018-04-25T11:04:14.475Z,106.88
2018-04-25T11:05:14.918Z,73.13
2018-04-25T11:06:15.356Z,67.50
2018-04-25T11:07:15.794Z,118.13
2018-04-25T11:08:16.241Z,129.38
2018-04-25T11:09:16.671Z,140.63
2018-04-25T11:10:17.126Z,151.88
2018-04-25T11:11:17.553Z,129.38
2018-04-25T11:12:18.006Z,106.88
2018-04-25T11:13:18.435Z,67.50
2018-04-25T11:14:18.870Z,50.63
2018-04-25T11:15:19.309Z,67.50
2018-04-25T11:16:19.743Z,101.25
2018-04-25T11:17:20.185Z,191.25
2018-04-25T11:18:20.621Z,236.25
2018-04-25T11:19:21.057Z,213.75
2018-04-25T11:20:21.550Z,219.38
2018-04-25T11:21:21.922Z,191.25
2018-04-25T11:22:22.366Z,151.88
2018-04-25T11:23:22.792Z,135.00
2018-04-25T11:24:23.229Z,123.75
2018-04-25T11:25:23.663Z,118.13
2018-04-25T11:26:24.159Z,101.25
2018-04-25T11:27:24.533Z,112.50
2018-04-25T11:28:24.967Z,106.88
2018-04-25T11:29:25.402Z,106.88
2018-04-25T11:30:25.836Z,123.75
2018-04-25T11:31:26.277Z,140.63
2018-04-25T11:32:26.708Z,151.88
2018-04-25T11:33:27.135Z,135.00
2018-04-25T11:34:27.565Z,135.00
2018-04-25T11:35:27.999Z,157.50
2018-04-25T11:36:28.491Z,196.88
2018-04-25T11:37:28.873Z,196.88
2018-04-25T11:38:29.293Z,191.25
2018-04-25T11:39:29.733Z,191.25
2018-04-25T11:40:30.162Z,180.00
2018-04-25T11:41:30.595Z,180.00
2018-04-25T11:42:31.028Z,174.38
2018-04-25T11:43:31.462Z,219.38
2018-04-25T11:44:31.898Z,298.13
2018-04-25T11:45:32.326Z,331.88
2018-04-25T11:46:32.774Z,331.88
2018-04-25T11:47:33.186Z,433.13
2018-04-25T11:48:33.629Z,725.63
2018-04-25T11:49:34.054Z,646.88
2018-04-25T11:50:34.490Z,714.38
2018-04-25T11:51:34.923Z,697.50
2018-04-25T11:52:35.366Z,562.50
2018-04-25T11:53:35.790Z,511.88
2018-04-25T11:54:36.220Z,500.63
2018-04-25T11:55:36.656Z,472.50
2018-04-25T11:56:37.090Z,556.88
2018-04-25T11:57:37.533Z,753.75
2018-04-25T11:58:38.016Z,714.38
2018-04-25T11:59:38.447Z,483.75
2018-04-25T12:00:38.831Z,444.38
2018-04-25T12:01:39.261Z,556.88
2018-04-25T12:02:39.694Z,511.88
2018-04-25T12:03:40.127Z,405.00
2018-04-25T12:04:40.600Z,376.88
2018-04-25T12:05:41.000Z,388.13
2018-04-25T12:06:41.436Z,337.50
2018-04-25T12:07:41.867Z,315.00
2018-04-25T12:08:42.305Z,360.00
2018-04-25T12:09:42.745Z,309.38
2018-04-25T12:10:43.176Z,286.88
2018-04-25T12:11:43.620Z,275.63
2018-04-25T12:12:44.042Z,275.63
2018-04-25T12:13:44.482Z,281.25
2018-04-25T12:14:44.921Z,281.25
2018-04-25T12:15:45.351Z,281.25
2018-04-25T12:16:45.787Z,281.25
2018-04-25T12:17:46.223Z,275.63
2018-04-25T12:18:46.679Z,281.25
2018-04-25T12:19:47.091Z,281.25
2018-04-25T12:20:47.533Z,292.50
2018-04-25T12:21:47.955Z,303.75
2018-04-25T12:22:48.403Z,315.00
2018-04-25T12:23:48.828Z,315.00
2018-04-25T12:24:49.263Z,315.00
2018-04-25T12:25:49.700Z,326.25
2018-04-25T12:26:50.134Z,331.88
2018-04-25T12:27:50.572Z,309.38
2018-04-25T12:28:51.005Z,309.38
2018-04-25T12:29:51.437Z,337.50
2018-04-25T12:30:51.874Z,416.25
2018-04-25T12:31:52.311Z,376.88
2018-04-25T12:32:52.743Z,416.25
2018-04-25T12:33:53.187Z,365.63
2018-04-25T12:34:53.620Z,410.63
2018-04-25T12:35:54.156Z,331.88
2018-04-25T12:36:54.502Z,472.50
2018-04-25T12:37:54.925Z,483.75
2018-04-25T12:38:55.373Z,320.63
2018-04-25T12:39:55.796Z,174.38
2018-04-25T12:40:56.235Z,140.63
2018-04-25T12:41:56.670Z,151.88
2018-04-25T12:42:57.117Z,146.25
2018-04-25T12:43:57.556Z,337.50
2018-04-25T12:44:57.984Z,500.63
2018-04-25T12:45:58.424Z,455.63
2018-04-25T12:46:58.854Z,348.75
2018-04-25T12:47:59.285Z,298.13
2018-04-25T12:48:59.725Z,286.88
2018-04-25T12:50:00.171Z,281.25
2018-04-25T12:51:00.654Z,286.88
2018-04-25T12:52:01.038Z,286.88
2018-04-25T12:53:01.471Z,303.75
2018-04-25T12:54:01.925Z,444.38
2018-04-25T12:55:02.389Z,405.00
2018-04-25T12:56:02.792Z,320.63
2018-04-25T12:57:03.222Z,309.38
2018-04-25T12:58:03.658Z,286.88
2018-04-25T12:59:04.102Z,264.38
2018-04-25T13:00:04.590Z,247.50
2018-04-25T13:01:04.974Z,241.88
2018-04-25T13:02:05.396Z,275.63
2018-04-25T13:03:05.881Z,309.38
2018-04-25T13:04:06.268Z,331.88
2018-04-25T13:05:06.716Z,281.25
2018-04-25T13:06:07.145Z,292.50
2018-04-25T13:07:07.575Z,427.50
2018-04-25T13:08:08.036Z,433.13
2018-04-25T13:09:08.550Z,405.00
2018-04-25T13:10:08.892Z,405.00
2018-04-25T13:11:09.367Z,450.00
2018-04-25T13:12:09.783Z,331.88
2018-04-25T13:13:10.207Z,343.13
2018-04-25T13:14:10.637Z,348.75
2018-04-25T13:15:11.099Z,343.13
2018-04-25T13:16:11.515Z,360.00
2018-04-25T13:17:11.945Z,331.88
2018-04-25T13:18:12.385Z,354.38